PWSweather.com
Personal Weather Stations
Station Observations
STPETERS
BroadstairsGB

BroadstairsGB

Lat: 51.37, Lon: 1.423

Elevation: 141

Station Type: WH1081

Latest ConditionsUpdated 9:30:03 PM GMT Thursday, Nov 27, 2014
Currently Today's Max Today's Min Today's Average
Temperature 52.7°F11.5°C 54.5°F12.5°C 50.7°F10.4°C 52.6°F11.4°C
Dew Point 51.6°F10.9°C 53.4°F11.9°C 49.6°F9.8°C 51.5°F10.8°C
Winds 6.3 mph SE10.1 kmh SE 13.3 mph S21.4 kmh S - 8.2 mph 13.2 kmh
Wind Gusts 8.3 mph13.4 kmh 16.8 mph27.0 kmh - -
Humidity 96% 96% 96% 96%
Pressure 29.63 in1003.4 mb 29.75 in1007.5 mb 29.62 in1003.0 mb -
Hour Temp Dew Point Humidity Winds Wind Gusts Pressure Precip Precip Rate Daily Precip Total
09:30 PM 52.7°F11.5°C 51.6°F10.9°C 96% 6.3 mph SE10.1 kmh SE 8.3 mph13.4 kmh 29.63 in1003.4 mb 0.00 in0.0 mm 0.00 in/hr0.0 mm/hr 0.00 in0.0 mm
09:15 PM 52.5°F11.4°C 51.4°F10.8°C 96% 5.2 mph SE8.4 kmh SE 7.6 mph12.2 kmh 29.63 in1003.4 mb 0.00 in0.0 mm 0.00 in/hr0.0 mm/hr 0.00 in0.0 mm
09:00 PM 52.5°F11.4°C 51.4°F10.8°C 96% 6.4 mph SE10.3 kmh SE 8.3 mph13.4 kmh 29.63 in1003.4 mb 0.00 in0.0 mm 0.00 in/hr0.0 mm/hr 0.00 in0.0 mm
08:45 PM 52.7°F11.5°C 51.6°F10.9°C 96% 6.2 mph SE10.0 kmh SE 9.2 mph14.8 kmh 29.62 in1003.0 mb 0.00 in0.0 mm 0.00 in/hr0.0 mm/hr 0.00 in0.0 mm
08:30 PM 52.7°F11.5°C 51.6°F10.9°C 96% 7.4 mph SE11.9 kmh SE 10.7 mph17.2 kmh 29.63 in1003.4 mb 0.00 in0.0 mm 0.00 in/hr0.0 mm/hr 0.00 in0.0 mm
08:15 PM 52.7°F11.5°C 51.6°F10.9°C 96% 7.4 mph SSE11.9 kmh SSE 9.8 mph15.8 kmh 29.63 in1003.4 mb 0.00 in0.0 mm 0.00 in/hr0.0 mm/hr 0.00 in0.0 mm
08:00 PM 52.9°F11.6°C 51.8°F11.0°C 96% 7.9 mph SSE12.7 kmh SSE 11.4 mph18.3 kmh 29.63 in1003.4 mb 0.00 in0.0 mm 0.00 in/hr0.0 mm/hr 0.00 in0.0 mm
07:45 PM 52.9°F11.6°C 51.8°F11.0°C 96% 7.2 mph SE11.6 kmh SE 10.7 mph17.2 kmh 29.63 in1003.4 mb 0.00 in0.0 mm 0.00 in/hr0.0 mm/hr 0.00 in0.0 mm
07:30 PM 52.7°F11.5°C 51.6°F10.9°C 96% 5.8 mph SSE9.3 kmh SSE 8.3 mph13.4 kmh 29.62 in1003.0 mb 0.00 in0.0 mm 0.00 in/hr0.0 mm/hr 0.00 in0.0 mm
07:15 PM 52.9°F11.6°C 51.8°F11.0°C 96% 4.5 mph SSE7.2 kmh SSE 7.6 mph12.2 kmh 29.63 in1003.4 mb 0.00 in0.0 mm 0.00 in/hr0.0 mm/hr 0.00 in0.0 mm
07:00 PM 52.7°F11.5°C 51.6°F10.9°C 96% 6.5 mph SSE10.5 kmh SSE 9.2 mph14.8 kmh 29.63 in1003.4 mb 0.00 in0.0 mm 0.00 in/hr0.0 mm/hr 0.00 in0.0 mm
06:45 PM 52.9°F11.6°C 51.8°F11.0°C 96% 7.8 mph SSE12.6 kmh SSE 11.4 mph18.3 kmh 29.63 in1003.4 mb 0.00 in0.0 mm 0.00 in/hr0.0 mm/hr 0.00 in0.0 mm
06:30 PM 52.9°F11.6°C 51.8°F11.0°C 96% 6.9 mph SSE11.1 kmh SSE 9.2 mph14.8 kmh 29.63 in1003.4 mb 0.00 in0.0 mm 0.00 in/hr0.0 mm/hr 0.00 in0.0 mm
06:15 PM 53.1°F11.7°C 52.0°F11.1°C 96% 6.6 mph SE10.6 kmh SE 9.8 mph15.8 kmh 29.63 in1003.4 mb 0.00 in0.0 mm 0.00 in/hr0.0 mm/hr 0.00 in0.0 mm
06:00 PM 52.9°F11.6°C 51.8°F11.0°C 96% 8.1 mph SE13.0 kmh SE 11.4 mph18.3 kmh 29.64 in1003.7 mb 0.00 in0.0 mm 0.00 in/hr0.0 mm/hr 0.00 in0.0 mm
05:45 PM 53.1°F11.7°C 52.0°F11.1°C 96% 7.8 mph SSE12.6 kmh SSE 9.8 mph15.8 kmh 29.64 in1003.7 mb 0.00 in0.0 mm 0.00 in/hr0.0 mm/hr 0.00 in0.0 mm
05:30 PM 52.9°F11.6°C 51.8°F11.0°C 96% 8.3 mph SSE13.4 kmh SSE 11.4 mph18.3 kmh 29.63 in1003.4 mb 0.00 in0.0 mm 0.00 in/hr0.0 mm/hr 0.00 in0.0 mm
05:15 PM 52.5°F11.4°C 51.4°F10.8°C 96% 2.8 mph S4.5 kmh S 3.8 mph6.1 kmh 29.64 in1003.7 mb 0.00 in0.0 mm 0.00 in/hr0.0 mm/hr 0.00 in0.0 mm
05:00 PM 52.5°F11.4°C 51.4°F10.8°C 96% 2.7 mph S4.3 kmh S 3.1 mph5.0 kmh 29.63 in1003.4 mb 0.00 in0.0 mm 0.00 in/hr0.0 mm/hr 0.00 in0.0 mm
04:45 PM 52.5°F11.4°C 51.4°F10.8°C 96% 2.5 mph S4.0 kmh S 3.8 mph6.1 kmh 29.63 in1003.4 mb 0.00 in0.0 mm 0.00 in/hr0.0 mm/hr 0.00 in0.0 mm
04:30 PM 52.5°F11.4°C 51.4°F10.8°C 96% 2.6 mph S4.2 kmh S 3.1 mph5.0 kmh 29.63 in1003.4 mb 0.00 in0.0 mm 0.00 in/hr0.0 mm/hr 0.00 in0.0 mm
04:15 PM 52.9°F11.6°C 51.8°F11.0°C 96% 3.2 mph S5.1 kmh S 4.5 mph7.2 kmh 29.63 in1003.4 mb 0.00 in0.0 mm 0.00 in/hr0.0 mm/hr 0.00 in0.0 mm
04:00 PM 52.9°F11.6°C 51.8°F11.0°C 96% 3.4 mph S5.5 kmh S 4.5 mph7.2 kmh 29.63 in1003.4 mb 0.00 in0.0 mm 0.00 in/hr0.0 mm/hr 0.00 in0.0 mm
03:45 PM 53.1°F11.7°C 52.0°F11.1°C 96% 2.9 mph SSE4.7 kmh SSE 3.8 mph6.1 kmh 29.63 in1003.4 mb 0.00 in0.0 mm 0.00 in/hr0.0 mm/hr 0.00 in0.0 mm
03:30 PM 53.2°F11.8°C 52.1°F11.2°C 96% 4.9 mph SSE7.9 kmh SSE 6.0 mph9.7 kmh 29.63 in1003.4 mb 0.00 in0.0 mm 0.00 in/hr0.0 mm/hr 0.00 in0.0 mm
03:15 PM 53.2°F11.8°C 52.1°F11.2°C 96% 4.5 mph S7.2 kmh S 6.0 mph9.7 kmh 29.64 in1003.7 mb 0.00 in0.0 mm 0.00 in/hr0.0 mm/hr 0.00 in0.0 mm
03:00 PM 53.2°F11.8°C 52.1°F11.2°C 96% 4.8 mph S7.7 kmh S 6.9 mph11.1 kmh 29.63 in1003.4 mb 0.00 in0.0 mm 0.00 in/hr0.0 mm/hr 0.00 in0.0 mm
02:45 PM 53.4°F11.9°C 52.3°F11.3°C 96% 6.9 mph SSE11.1 kmh SSE 9.8 mph15.8 kmh 29.63 in1003.4 mb 0.00 in0.0 mm 0.00 in/hr0.0 mm/hr 0.00 in0.0 mm
02:30 PM 53.2°F11.8°C 52.1°F11.2°C 96% 8.2 mph S13.2 kmh S 10.7 mph17.2 kmh 29.63 in1003.4 mb 0.00 in0.0 mm 0.00 in/hr0.0 mm/hr 0.00 in0.0 mm
02:15 PM 54.5°F12.5°C 53.4°F11.9°C 96% 8.3 mph S13.4 kmh S 11.4 mph18.3 kmh 29.63 in1003.4 mb 0.00 in0.0 mm 0.00 in/hr0.0 mm/hr 0.00 in0.0 mm
02:00 PM 54.0°F12.2°C 52.9°F11.6°C 96% 7.1 mph SSE11.4 kmh SSE 9.2 mph14.8 kmh 29.63 in1003.4 mb 0.00 in0.0 mm 0.00 in/hr0.0 mm/hr 0.00 in0.0 mm
01:45 PM 53.8°F12.1°C 52.7°F11.5°C 96% 7.9 mph SSE12.7 kmh SSE 10.7 mph17.2 kmh 29.63 in1003.4 mb 0.00 in0.0 mm 0.00 in/hr0.0 mm/hr 0.00 in0.0 mm
01:30 PM 53.8°F12.1°C 52.7°F11.5°C 96% 8.0 mph SSE12.9 kmh SSE 9.8 mph15.8 kmh 29.63 in1003.4 mb 0.00 in0.0 mm 0.00 in/hr0.0 mm/hr 0.00 in0.0 mm
01:15 PM 53.8°F12.1°C 52.7°F11.5°C 96% 8.7 mph S14.0 kmh S 12.1 mph19.5 kmh 29.63 in1003.4 mb 0.00 in0.0 mm 0.00 in/hr0.0 mm/hr 0.00 in0.0 mm
01:00 PM 53.8°F12.1°C 52.7°F11.5°C 96% 8.9 mph S14.3 kmh S 10.7 mph17.2 kmh 29.63 in1003.4 mb 0.00 in0.0 mm 0.00 in/hr0.0 mm/hr 0.00 in0.0 mm
12:45 PM 53.8°F12.1°C 52.7°F11.5°C 96% 7.8 mph S12.6 kmh S 12.1 mph19.5 kmh 29.64 in1003.7 mb 0.00 in0.0 mm 0.00 in/hr0.0 mm/hr 0.00 in0.0 mm
12:30 PM 53.6°F12.0°C 52.5°F11.4°C 96% 8.9 mph S14.3 kmh S 12.1 mph19.5 kmh 29.64 in1003.7 mb 0.00 in0.0 mm 0.00 in/hr0.0 mm/hr 0.00 in0.0 mm
12:15 PM 53.2°F11.8°C 52.1°F11.2°C 96% 7.9 mph S12.7 kmh S 10.7 mph17.2 kmh 29.64 in1003.7 mb 0.00 in0.0 mm 0.00 in/hr0.0 mm/hr 0.00 in0.0 mm
12:00 PM 53.2°F11.8°C 52.1°F11.2°C 96% 6.3 mph S10.1 kmh S 9.2 mph14.8 kmh 29.65 in1004.1 mb 0.00 in0.0 mm 0.00 in/hr0.0 mm/hr 0.00 in0.0 mm
11:45 AM 53.6°F12.0°C 52.5°F11.4°C 96% 10.1 mph S16.3 kmh S 13.6 mph21.9 kmh 29.65 in1004.1 mb 0.00 in0.0 mm 0.00 in/hr0.0 mm/hr 0.00 in0.0 mm
11:30 AM 53.4°F11.9°C 52.3°F11.3°C 96% 11.0 mph SSE17.7 kmh SSE 16.8 mph27.0 kmh 29.65 in1004.1 mb 0.00 in0.0 mm 0.00 in/hr0.0 mm/hr 0.00 in0.0 mm
11:15 AM 53.6°F12.0°C 52.5°F11.4°C 96% 12.0 mph S19.3 kmh S 16.8 mph27.0 kmh 29.65 in1004.1 mb 0.00 in0.0 mm 0.00 in/hr0.0 mm/hr 0.00 in0.0 mm
11:00 AM 53.6°F12.0°C 52.5°F11.4°C 96% 12.0 mph S19.3 kmh S 16.8 mph27.0 kmh 29.66 in1004.4 mb 0.00 in0.0 mm 0.00 in/hr0.0 mm/hr 0.00 in0.0 mm
10:45 AM 53.8°F12.1°C 52.7°F11.5°C 96% 11.7 mph S18.8 kmh S 15.2 mph24.5 kmh 29.66 in1004.4 mb 0.00 in0.0 mm 0.00 in/hr0.0 mm/hr 0.00 in0.0 mm
10:30 AM 52.9°F11.6°C 51.8°F11.0°C 96% 11.8 mph S19.0 kmh S 15.9 mph25.6 kmh 29.66 in1004.4 mb 0.00 in0.0 mm 0.00 in/hr0.0 mm/hr 0.00 in0.0 mm
10:15 AM 52.9°F11.6°C 51.8°F11.0°C 96% 12.0 mph S19.3 kmh S 15.2 mph24.5 kmh 29.67 in1004.7 mb 0.00 in0.0 mm 0.00 in/hr0.0 mm/hr 0.00 in0.0 mm
10:00 AM 52.7°F11.5°C 51.6°F10.9°C 96% 11.8 mph SSE19.0 kmh SSE 15.2 mph24.5 kmh 29.67 in1004.7 mb 0.00 in0.0 mm 0.00 in/hr0.0 mm/hr 0.00 in0.0 mm
09:45 AM 52.9°F11.6°C 51.8°F11.0°C 96% 11.6 mph SSE18.7 kmh SSE 15.2 mph24.5 kmh 29.67 in1004.7 mb 0.00 in0.0 mm 0.00 in/hr0.0 mm/hr 0.00 in0.0 mm
09:30 AM 53.1°F11.7°C 52.0°F11.1°C 96% 11.2 mph S18.0 kmh S 15.9 mph25.6 kmh 29.67 in1004.7 mb 0.00 in0.0 mm 0.00 in/hr0.0 mm/hr 0.00 in0.0 mm
09:15 AM 53.1°F11.7°C 52.0°F11.1°C 96% 13.3 mph S21.4 kmh S 15.2 mph24.5 kmh 29.67 in1004.7 mb 0.00 in0.0 mm 0.00 in/hr0.0 mm/hr 0.00 in0.0 mm
09:00 AM 52.5°F11.4°C 51.4°F10.8°C 96% 11.4 mph S18.3 kmh S 14.5 mph23.3 kmh 29.67 in1004.7 mb 0.00 in0.0 mm 0.00 in/hr0.0 mm/hr 0.00 in0.0 mm
08:45 AM 52.3°F11.3°C 51.2°F10.7°C 96% 11.9 mph S19.2 kmh S 13.6 mph21.9 kmh 29.67 in1004.7 mb 0.00 in0.0 mm 0.00 in/hr0.0 mm/hr 0.00 in0.0 mm
08:30 AM 52.2°F11.2°C 51.1°F10.6°C 96% 11.8 mph S19.0 kmh S 14.5 mph23.3 kmh 29.68 in1005.1 mb 0.00 in0.0 mm 0.00 in/hr0.0 mm/hr 0.00 in0.0 mm
08:15 AM 51.8°F11.0°C 50.7°F10.4°C 96% 11.2 mph S18.0 kmh S 13.6 mph21.9 kmh 29.67 in1004.7 mb 0.00 in0.0 mm 0.00 in/hr0.0 mm/hr 0.00 in0.0 mm
08:00 AM 51.6°F10.9°C 50.5°F10.3°C 96% 11.1 mph S17.9 kmh S 15.2 mph24.5 kmh 29.67 in1004.7 mb 0.00 in0.0 mm 0.00 in/hr0.0 mm/hr 0.00 in0.0 mm
07:45 AM 51.6°F10.9°C 50.5°F10.3°C 96% 11.9 mph S19.2 kmh S 14.5 mph23.3 kmh 29.67 in1004.7 mb 0.00 in0.0 mm 0.00 in/hr0.0 mm/hr 0.00 in0.0 mm
07:30 AM 51.6°F10.9°C 50.5°F10.3°C 96% 10.8 mph S17.4 kmh S 13.6 mph21.9 kmh 29.67 in1004.7 mb 0.00 in0.0 mm 0.00 in/hr0.0 mm/hr 0.00 in0.0 mm
07:15 AM 51.8°F11.0°C 50.7°F10.4°C 96% 12.5 mph SSE20.1 kmh SSE 15.9 mph25.6 kmh 29.66 in1004.4 mb 0.00 in0.0 mm 0.00 in/hr0.0 mm/hr 0.00 in0.0 mm
07:00 AM 51.8°F11.0°C 50.7°F10.4°C 96% 10.5 mph S16.9 kmh S 14.5 mph23.3 kmh 29.67 in1004.7 mb 0.00 in0.0 mm 0.00 in/hr0.0 mm/hr 0.00 in0.0 mm
06:45 AM 51.6°F10.9°C 50.5°F10.3°C 96% 10.0 mph S16.1 kmh S 13.0 mph20.9 kmh 29.67 in1004.7 mb 0.00 in0.0 mm 0.00 in/hr0.0 mm/hr 0.00 in0.0 mm
06:30 AM 51.6°F10.9°C 50.5°F10.3°C 96% 10.1 mph S16.3 kmh S 13.0 mph20.9 kmh 29.67 in1004.7 mb 0.00 in0.0 mm 0.00 in/hr0.0 mm/hr 0.00 in0.0 mm
06:15 AM 51.3°F10.7°C 50.2°F10.1°C 96% 9.7 mph SSE15.6 kmh SSE 12.1 mph19.5 kmh 29.67 in1004.7 mb 0.00 in0.0 mm 0.00 in/hr0.0 mm/hr 0.00 in0.0 mm
06:00 AM 51.3°F10.7°C 50.2°F10.1°C 96% 7.6 mph S12.2 kmh S 10.7 mph17.2 kmh 29.68 in1005.1 mb 0.00 in0.0 mm 0.00 in/hr0.0 mm/hr 0.00 in0.0 mm
05:45 AM 52.7°F11.5°C 51.6°F10.9°C 96% 9.8 mph S15.8 kmh S 13.0 mph20.9 kmh 29.68 in1005.1 mb 0.00 in0.0 mm 0.00 in/hr0.0 mm/hr 0.00 in0.0 mm
05:30 AM 51.1°F10.6°C 50.0°F10.0°C 96% 10.0 mph S16.1 kmh S 12.1 mph19.5 kmh 29.68 in1005.1 mb 0.00 in0.0 mm 0.00 in/hr0.0 mm/hr 0.00 in0.0 mm
05:15 AM 50.9°F10.5°C 49.8°F9.9°C 96% 8.9 mph S14.3 kmh S 11.4 mph18.3 kmh 29.69 in1005.4 mb 0.00 in0.0 mm 0.00 in/hr0.0 mm/hr 0.00 in0.0 mm
05:00 AM 50.7°F10.4°C 49.6°F9.8°C 96% 7.2 mph SSE11.6 kmh SSE 9.8 mph15.8 kmh 29.69 in1005.4 mb 0.00 in0.0 mm 0.00 in/hr0.0 mm/hr 0.00 in0.0 mm
04:45 AM 50.7°F10.4°C 49.6°F9.8°C 96% 9.2 mph S14.8 kmh S 12.1 mph19.5 kmh 29.69 in1005.4 mb 0.00 in0.0 mm 0.00 in/hr0.0 mm/hr 0.00 in0.0 mm
04:30 AM 50.9°F10.5°C 49.8°F9.9°C 96% 8.0 mph S12.9 kmh S 12.1 mph19.5 kmh 29.69 in1005.4 mb 0.00 in0.0 mm 0.00 in/hr0.0 mm/hr 0.00 in0.0 mm
04:15 AM 50.9°F10.5°C 49.8°F9.9°C 96% 7.6 mph S12.2 kmh S 9.8 mph15.8 kmh 29.69 in1005.4 mb 0.00 in0.0 mm 0.00 in/hr0.0 mm/hr 0.00 in0.0 mm
04:00 AM 51.3°F10.7°C 50.2°F10.1°C 96% 10.9 mph S17.5 kmh S 13.6 mph21.9 kmh 29.69 in1005.4 mb 0.00 in0.0 mm 0.00 in/hr0.0 mm/hr 0.00 in0.0 mm
03:45 AM 51.4°F10.8°C 50.3°F10.2°C 96% 8.5 mph SSE13.7 kmh SSE 10.7 mph17.2 kmh 29.70 in1005.8 mb 0.00 in0.0 mm 0.00 in/hr0.0 mm/hr 0.00 in0.0 mm
03:30 AM 51.4°F10.8°C 50.3°F10.2°C 96% 9.4 mph S15.1 kmh S 13.6 mph21.9 kmh 29.70 in1005.8 mb 0.00 in0.0 mm 0.00 in/hr0.0 mm/hr 0.00 in0.0 mm
03:15 AM 51.6°F10.9°C 50.5°F10.3°C 96% 9.0 mph S14.5 kmh S 10.7 mph17.2 kmh 29.71 in1006.1 mb 0.00 in0.0 mm 0.00 in/hr0.0 mm/hr 0.00 in0.0 mm
03:00 AM 52.2°F11.2°C 51.1°F10.6°C 96% 11.0 mph S17.7 kmh S 13.6 mph21.9 kmh 29.71 in1006.1 mb 0.00 in0.0 mm 0.00 in/hr0.0 mm/hr 0.00 in0.0 mm
02:45 AM 52.5°F11.4°C 51.4°F10.8°C 96% 9.9 mph S15.9 kmh S 15.2 mph24.5 kmh 29.72 in1006.4 mb 0.00 in0.0 mm 0.00 in/hr0.0 mm/hr 0.00 in0.0 mm
02:30 AM 52.7°F11.5°C 51.6°F10.9°C 96% 10.7 mph S17.2 kmh S 13.0 mph20.9 kmh 29.72 in1006.4 mb 0.00 in0.0 mm 0.00 in/hr0.0 mm/hr 0.00 in0.0 mm
02:15 AM 52.7°F11.5°C 51.6°F10.9°C 96% 11.4 mph S18.3 kmh S 15.2 mph24.5 kmh 29.72 in1006.4 mb 0.00 in0.0 mm 0.00 in/hr0.0 mm/hr 0.00 in0.0 mm
02:00 AM 52.7°F11.5°C 51.6°F10.9°C 96% 8.7 mph S14.0 kmh S 11.4 mph18.3 kmh 29.73 in1006.8 mb 0.00 in0.0 mm 0.00 in/hr0.0 mm/hr 0.00 in0.0 mm
01:45 AM 52.7°F11.5°C 51.6°F10.9°C 96% 7.4 mph S11.9 kmh S 9.2 mph14.8 kmh 29.73 in1006.8 mb 0.00 in0.0 mm 0.00 in/hr0.0 mm/hr 0.00 in0.0 mm
01:30 AM 52.5°F11.4°C 51.4°F10.8°C 96% 6.9 mph S11.1 kmh S 8.3 mph13.4 kmh 29.73 in1006.8 mb 0.00 in0.0 mm 0.00 in/hr0.0 mm/hr 0.00 in0.0 mm
01:15 AM 52.5°F11.4°C 51.4°F10.8°C 96% 6.2 mph SE10.0 kmh SE 8.3 mph13.4 kmh 29.73 in1006.8 mb 0.00 in0.0 mm 0.00 in/hr0.0 mm/hr 0.00 in0.0 mm
01:00 AM 52.3°F11.3°C 51.2°F10.7°C 96% 7.2 mph SSE11.6 kmh SSE 9.8 mph15.8 kmh 29.73 in1006.8 mb 0.00 in0.0 mm 0.00 in/hr0.0 mm/hr 0.00 in0.0 mm
12:45 AM 52.3°F11.3°C 51.2°F10.7°C 96% 6.0 mph SE9.7 kmh SE 7.6 mph12.2 kmh 29.75 in1007.5 mb 0.00 in0.0 mm 0.00 in/hr0.0 mm/hr 0.00 in0.0 mm
12:30 AM 52.0°F11.1°C 50.9°F10.5°C 96% 4.9 mph S7.9 kmh S 6.0 mph9.7 kmh 29.75 in1007.5 mb 0.00 in0.0 mm 0.00 in/hr0.0 mm/hr 0.00 in0.0 mm
12:15 AM 52.0°F11.1°C 50.9°F10.5°C 96% 5.3 mph SSE8.5 kmh SSE 6.9 mph11.1 kmh 29.75 in1007.5 mb 0.00 in0.0 mm 0.00 in/hr0.0 mm/hr 0.00 in0.0 mm
12:00 AM 51.8°F11.0°C 50.7°F10.4°C 96% 4.6 mph S7.4 kmh S 6.0 mph9.7 kmh 29.75 in1007.5 mb 0.00 in0.0 mm 0.00 in/hr0.0 mm/hr 0.00 in0.0 mm